UAL1744 KIAH-KLAX
Flight info
| Callsign | UAL1744 |
|---|---|
| Flight time | 3h 1m |
| Altitude | 32000 |
| Route | PITZZ5 CRGER EWM/N0445F340 J4 WLVRN ESTWD HLYWD1 |
| Aircraft | B738/M-SDE2E3FGHIRWXY/LB1 |
Departure
| Time | 2026-05-08 03:29 |
|---|---|
| Airport | George Bush Intercontinental Airport (KIAH) |
Arrival
| Time | 2026-05-08 06:31 |
|---|---|
| Airport | Los Angeles International Airport (KLAX) |
| Time | Latitude | Longitude | Altitude | Speed | Heading |
|---|---|---|---|---|---|
| 2026-05-08 03:03 | 29.98524 | -95.35169 | 101 ft | 0 kts | 34° |
| 2026-05-08 03:21 | 29.98523 | -95.35170 | 101 ft | 2 kts | 34° |
| 2026-05-08 03:21 | 29.98502 | -95.35186 | 99 ft | 4 kts | 33° |
| 2026-05-08 03:21 | 29.98479 | -95.35203 | 100 ft | 4 kts | 31° |
| 2026-05-08 03:22 | 29.98455 | -95.35218 | 100 ft | 4 kts | 24° |
| 2026-05-08 03:22 | 29.98430 | -95.35227 | 100 ft | 4 kts | 359° |
| 2026-05-08 03:22 | 29.98417 | -95.35224 | 101 ft | 0 kts | 333° |
| 2026-05-08 03:25 | 29.98435 | -95.35235 | 100 ft | 4 kts | 333° |
| 2026-05-08 03:25 | 29.98459 | -95.35249 | 101 ft | 4 kts | 332° |
| 2026-05-08 03:25 | 29.98487 | -95.35267 | 101 ft | 7 kts | 332° |
| 2026-05-08 03:25 | 29.98550 | -95.35305 | 101 ft | 11 kts | 332° |
| 2026-05-08 03:26 | 29.98618 | -95.35348 | 101 ft | 11 kts | 331° |
| 2026-05-08 03:26 | 29.98684 | -95.35387 | 102 ft | 11 kts | 340° |
| 2026-05-08 03:26 | 29.98750 | -95.35424 | 102 ft | 10 kts | 333° |
| 2026-05-08 03:26 | 29.98811 | -95.35466 | 102 ft | 10 kts | 330° |
| 2026-05-08 03:27 | 29.98871 | -95.35507 | 102 ft | 10 kts | 316° |
| 2026-05-08 03:27 | 29.98868 | -95.35579 | 103 ft | 10 kts | 247° |
| 2026-05-08 03:27 | 29.98842 | -95.35646 | 102 ft | 9 kts | 245° |
| 2026-05-08 03:27 | 29.98813 | -95.35712 | 103 ft | 9 kts | 239° |
| 2026-05-08 03:28 | 29.98777 | -95.35767 | 104 ft | 5 kts | 201° |
| 2026-05-08 03:28 | 29.98741 | -95.35752 | 105 ft | 9 kts | 151° |
| 2026-05-08 03:28 | 29.98491 | -95.35601 | 103 ft | 81 kts | 153° |
| 2026-05-08 03:28 | 29.97758 | -95.35149 | 101 ft | 155 kts | 151° |
| 2026-05-08 03:29 | 29.96628 | -95.34463 | 313 ft | 200 kts | 152° |
| 2026-05-08 03:29 | 29.95406 | -95.33792 | 1453 ft | 191 kts | 161° |
| 2026-05-08 03:29 | 29.94033 | -95.33816 | 2182 ft | 216 kts | 198° |
| 2026-05-08 03:29 | 29.92840 | -95.34991 | 2470 ft | 241 kts | 236° |
| 2026-05-08 03:30 | 29.91147 | -95.38386 | 3621 ft | 244 kts | 235° |
| 2026-05-08 03:30 | 29.89241 | -95.41777 | 4510 ft | 267 kts | 234° |
| 2026-05-08 03:31 | 29.87287 | -95.45438 | 5741 ft | 275 kts | 238° |
| 2026-05-08 03:31 | 29.85364 | -95.49307 | 7159 ft | 280 kts | 239° |
| 2026-05-08 03:32 | 29.84415 | -95.51257 | 7941 ft | 279 kts | 240° |
| 2026-05-08 03:32 | 29.83474 | -95.53206 | 8694 ft | 279 kts | 241° |
| 2026-05-08 03:32 | 29.82868 | -95.55323 | 9364 ft | 282 kts | 266° |
| 2026-05-08 03:32 | 29.83102 | -95.57557 | 10095 ft | 284 kts | 288° |
| 2026-05-08 03:33 | 29.83957 | -95.59654 | 10490 ft | 299 kts | 296° |
| 2026-05-08 03:33 | 29.85020 | -95.61822 | 10646 ft | 321 kts | 298° |
| 2026-05-08 03:33 | 29.86180 | -95.64102 | 10807 ft | 339 kts | 298° |
| 2026-05-08 03:33 | 29.87394 | -95.66480 | 11199 ft | 347 kts | 298° |
| 2026-05-08 03:34 | 29.88613 | -95.68888 | 11834 ft | 348 kts | 298° |
| 2026-05-08 03:34 | 29.89824 | -95.71299 | 12548 ft | 346 kts | 297° |
| 2026-05-08 03:34 | 29.91023 | -95.73704 | 13218 ft | 347 kts | 297° |
| 2026-05-08 03:34 | 29.92220 | -95.76119 | 13865 ft | 348 kts | 297° |
| 2026-05-08 03:35 | 29.93419 | -95.78546 | 14411 ft | 349 kts | 297° |
| 2026-05-08 03:35 | 29.94623 | -95.80990 | 14920 ft | 352 kts | 296° |
| 2026-05-08 03:35 | 29.95836 | -95.83453 | 15428 ft | 355 kts | 296° |
| 2026-05-08 03:35 | 29.97056 | -95.85934 | 15950 ft | 357 kts | 296° |
| 2026-05-08 03:36 | 29.98270 | -95.88402 | 16449 ft | 359 kts | 295° |
| 2026-05-08 03:36 | 29.99505 | -95.90915 | 16956 ft | 362 kts | 295° |
| 2026-05-08 03:36 | 30.00748 | -95.93448 | 17464 ft | 364 kts | 295° |
| 2026-05-08 03:36 | 30.02000 | -95.95999 | 17958 ft | 366 kts | 294° |
| 2026-05-08 03:37 | 30.03265 | -95.98577 | 18413 ft | 369 kts | 294° |
| 2026-05-08 03:37 | 30.04524 | -96.01146 | 18854 ft | 370 kts | 294° |
| 2026-05-08 03:37 | 30.05796 | -96.03741 | 19295 ft | 372 kts | 294° |
| 2026-05-08 03:37 | 30.06987 | -96.06381 | 19691 ft | 370 kts | 286° |
| 2026-05-08 03:38 | 30.07616 | -96.09234 | 20109 ft | 366 kts | 276° |
| 2026-05-08 03:38 | 30.08031 | -96.12132 | 20545 ft | 367 kts | 275° |
| 2026-05-08 03:38 | 30.08441 | -96.15047 | 20952 ft | 369 kts | 276° |
| 2026-05-08 03:38 | 30.08873 | -96.17974 | 21357 ft | 371 kts | 276° |
| 2026-05-08 03:39 | 30.09322 | -96.20917 | 21772 ft | 373 kts | 276° |
| 2026-05-08 03:39 | 30.09772 | -96.23837 | 22170 ft | 375 kts | 276° |
| 2026-05-08 03:39 | 30.10232 | -96.26812 | 22555 ft | 377 kts | 276° |
| 2026-05-08 03:39 | 30.10692 | -96.29801 | 22939 ft | 379 kts | 276° |
| 2026-05-08 03:40 | 30.11154 | -96.32808 | 23326 ft | 381 kts | 276° |
| 2026-05-08 03:40 | 30.11617 | -96.35826 | 23659 ft | 383 kts | 276° |
| 2026-05-08 03:40 | 30.12081 | -96.38858 | 23979 ft | 384 kts | 276° |
| 2026-05-08 03:40 | 30.12546 | -96.41899 | 24310 ft | 385 kts | 276° |
| 2026-05-08 03:41 | 30.13012 | -96.44948 | 24628 ft | 386 kts | 276° |
| 2026-05-08 03:41 | 30.13478 | -96.48007 | 24941 ft | 387 kts | 276° |
| 2026-05-08 03:41 | 30.13945 | -96.51078 | 25244 ft | 389 kts | 276° |
| 2026-05-08 03:41 | 30.14413 | -96.54160 | 25546 ft | 390 kts | 276° |
| 2026-05-08 03:42 | 30.14882 | -96.57251 | 25851 ft | 391 kts | 276° |
| 2026-05-08 03:42 | 30.15351 | -96.60351 | 26165 ft | 393 kts | 276° |
| 2026-05-08 03:42 | 30.15821 | -96.63461 | 26472 ft | 394 kts | 276° |
| 2026-05-08 03:42 | 30.16292 | -96.66581 | 26775 ft | 395 kts | 276° |
| 2026-05-08 03:43 | 30.16764 | -96.69719 | 27076 ft | 396 kts | 276° |
| 2026-05-08 03:43 | 30.17237 | -96.72863 | 27367 ft | 398 kts | 276° |
| 2026-05-08 03:43 | 30.17710 | -96.76015 | 27642 ft | 399 kts | 275° |
| 2026-05-08 03:43 | 30.18184 | -96.79178 | 27915 ft | 400 kts | 275° |
| 2026-05-08 03:44 | 30.18659 | -96.82351 | 28184 ft | 401 kts | 275° |
| 2026-05-08 03:44 | 30.19135 | -96.85537 | 28460 ft | 402 kts | 275° |
| 2026-05-08 03:44 | 30.19611 | -96.88728 | 28715 ft | 404 kts | 275° |
| 2026-05-08 03:44 | 30.20088 | -96.91930 | 28960 ft | 405 kts | 275° |
| 2026-05-08 03:45 | 30.20565 | -96.95141 | 29204 ft | 405 kts | 275° |
| 2026-05-08 03:45 | 30.21041 | -96.98351 | 29549 ft | 404 kts | 275° |
| 2026-05-08 03:45 | 30.21515 | -97.01543 | 29960 ft | 401 kts | 275° |
| 2026-05-08 03:45 | 30.21984 | -97.04713 | 30320 ft | 399 kts | 275° |
| 2026-05-08 03:46 | 30.22451 | -97.07874 | 30590 ft | 398 kts | 275° |
| 2026-05-08 03:46 | 30.22913 | -97.10988 | 30848 ft | 397 kts | 275° |
| 2026-05-08 03:46 | 30.23383 | -97.14133 | 31124 ft | 396 kts | 274° |
| 2026-05-08 03:46 | 30.23851 | -97.17268 | 31403 ft | 395 kts | 274° |
| 2026-05-08 03:47 | 30.24318 | -97.20396 | 31671 ft | 394 kts | 274° |
| 2026-05-08 03:47 | 30.24781 | -97.23511 | 31945 ft | 393 kts | 274° |
| 2026-05-08 03:47 | 30.25244 | -97.26634 | 31984 ft | 396 kts | 274° |
| 2026-05-08 03:48 | 30.26171 | -97.32904 | 31984 ft | 394 kts | 274° |
| 2026-05-08 03:48 | 30.27089 | -97.39121 | 32011 ft | 391 kts | 274° |
| 2026-05-08 03:49 | 30.27998 | -97.45305 | 32026 ft | 389 kts | 274° |
| 2026-05-08 03:49 | 30.28899 | -97.51468 | 32034 ft | 388 kts | 274° |
| 2026-05-08 03:50 | 30.29799 | -97.57644 | 32053 ft | 392 kts | 274° |
| 2026-05-08 03:50 | 30.30710 | -97.63912 | 32046 ft | 396 kts | 274° |
| 2026-05-08 03:51 | 30.31620 | -97.70170 | 32033 ft | 393 kts | 274° |
| 2026-05-08 03:51 | 30.32674 | -97.76370 | 32036 ft | 393 kts | 277° |
| 2026-05-08 03:52 | 30.34017 | -97.82541 | 32044 ft | 398 kts | 278° |
| 2026-05-08 03:52 | 30.35377 | -97.88766 | 32091 ft | 399 kts | 278° |
| 2026-05-08 03:53 | 30.36705 | -97.94989 | 32092 ft | 397 kts | 277° |
| 2026-05-08 03:53 | 30.38010 | -98.01194 | 32097 ft | 397 kts | 277° |
| 2026-05-08 03:54 | 30.39310 | -98.07404 | 32092 ft | 397 kts | 277° |
| 2026-05-08 03:54 | 30.40607 | -98.13615 | 32079 ft | 397 kts | 277° |
| 2026-05-08 03:55 | 30.41903 | -98.19835 | 32070 ft | 397 kts | 277° |
| 2026-05-08 03:55 | 30.43206 | -98.26119 | 32094 ft | 407 kts | 277° |
| 2026-05-08 03:56 | 30.44543 | -98.32570 | 32097 ft | 415 kts | 277° |
| 2026-05-08 03:56 | 30.45934 | -98.39057 | 32089 ft | 415 kts | 278° |
| 2026-05-08 03:57 | 30.47385 | -98.45500 | 32088 ft | 416 kts | 278° |
| 2026-05-08 03:57 | 30.48841 | -98.51978 | 32087 ft | 415 kts | 278° |
| 2026-05-08 03:58 | 30.50284 | -98.58456 | 32063 ft | 415 kts | 278° |
| 2026-05-08 03:58 | 30.51717 | -98.64929 | 32050 ft | 414 kts | 278° |
| 2026-05-08 03:59 | 30.53142 | -98.71388 | 32046 ft | 413 kts | 278° |
| 2026-05-08 03:59 | 30.54560 | -98.77833 | 32051 ft | 412 kts | 278° |
| 2026-05-08 04:00 | 30.55970 | -98.84264 | 32044 ft | 412 kts | 277° |
| 2026-05-08 04:00 | 30.57380 | -98.90709 | 32044 ft | 412 kts | 277° |
| 2026-05-08 04:01 | 30.58786 | -98.97151 | 32028 ft | 412 kts | 277° |
| 2026-05-08 04:01 | 30.60192 | -99.03606 | 32026 ft | 412 kts | 277° |
| 2026-05-08 04:02 | 30.61595 | -99.10066 | 32024 ft | 413 kts | 277° |
| 2026-05-08 04:02 | 30.62996 | -99.16534 | 32023 ft | 413 kts | 277° |
| 2026-05-08 04:03 | 30.64397 | -99.23018 | 32028 ft | 414 kts | 277° |
| 2026-05-08 04:03 | 30.66496 | -99.32764 | 32021 ft | 415 kts | 277° |
| 2026-05-08 04:04 | 30.67895 | -99.39277 | 32026 ft | 415 kts | 277° |
| 2026-05-08 04:04 | 30.69053 | -99.44685 | 32027 ft | 415 kts | 277° |
| 2026-05-08 04:05 | 30.70442 | -99.51182 | 32038 ft | 413 kts | 277° |
| 2026-05-08 04:05 | 30.71823 | -99.57659 | 32045 ft | 412 kts | 277° |
| 2026-05-08 04:06 | 30.73196 | -99.64118 | 32054 ft | 411 kts | 277° |
| 2026-05-08 04:06 | 30.74563 | -99.70570 | 32053 ft | 411 kts | 277° |
| 2026-05-08 04:07 | 30.75926 | -99.77017 | 32049 ft | 411 kts | 277° |
| 2026-05-08 04:07 | 30.77286 | -99.83469 | 32054 ft | 411 kts | 277° |
| 2026-05-08 04:08 | 30.78645 | -99.89933 | 32041 ft | 412 kts | 277° |
| 2026-05-08 04:08 | 30.80003 | -99.96407 | 32037 ft | 412 kts | 277° |
| 2026-05-08 04:09 | 30.81360 | -100.02893 | 32032 ft | 413 kts | 277° |
| 2026-05-08 04:09 | 30.82716 | -100.09390 | 32034 ft | 413 kts | 276° |
| 2026-05-08 04:10 | 30.84060 | -100.15848 | 32036 ft | 414 kts | 276° |
| 2026-05-08 04:10 | 30.85410 | -100.22352 | 32039 ft | 414 kts | 276° |
| 2026-05-08 04:11 | 30.86757 | -100.28861 | 32047 ft | 414 kts | 276° |
| 2026-05-08 04:11 | 30.88101 | -100.35369 | 32042 ft | 414 kts | 276° |
| 2026-05-08 04:12 | 30.89443 | -100.41888 | 32045 ft | 413 kts | 276° |
| 2026-05-08 04:12 | 30.90778 | -100.48392 | 32051 ft | 413 kts | 276° |
| 2026-05-08 04:13 | 30.92101 | -100.54849 | 32053 ft | 412 kts | 276° |
| 2026-05-08 04:13 | 30.93428 | -100.61351 | 32051 ft | 412 kts | 276° |
| 2026-05-08 04:14 | 30.94749 | -100.67837 | 32051 ft | 412 kts | 275° |
| 2026-05-08 04:14 | 30.96067 | -100.74325 | 32048 ft | 411 kts | 275° |
| 2026-05-08 04:15 | 30.97380 | -100.80809 | 32050 ft | 411 kts | 275° |
| 2026-05-08 04:15 | 30.98689 | -100.87291 | 32048 ft | 411 kts | 275° |
| 2026-05-08 04:16 | 30.99993 | -100.93766 | 32049 ft | 410 kts | 275° |
| 2026-05-08 04:16 | 31.01295 | -101.00245 | 32048 ft | 410 kts | 275° |
| 2026-05-08 04:17 | 31.02593 | -101.06725 | 32049 ft | 410 kts | 275° |
| 2026-05-08 04:17 | 31.03886 | -101.13199 | 32053 ft | 410 kts | 275° |
| 2026-05-08 04:18 | 31.05175 | -101.19671 | 32047 ft | 410 kts | 275° |
| 2026-05-08 04:18 | 31.06461 | -101.26143 | 32039 ft | 409 kts | 275° |
| 2026-05-08 04:19 | 31.07734 | -101.32568 | 32031 ft | 409 kts | 275° |
| 2026-05-08 04:19 | 31.09011 | -101.39031 | 32029 ft | 409 kts | 275° |
| 2026-05-08 04:20 | 31.10283 | -101.45490 | 32031 ft | 409 kts | 274° |
| 2026-05-08 04:20 | 31.11552 | -101.51952 | 32030 ft | 408 kts | 274° |
| 2026-05-08 04:21 | 31.12817 | -101.58406 | 32005 ft | 408 kts | 274° |
| 2026-05-08 04:21 | 31.14077 | -101.64856 | 32019 ft | 407 kts | 274° |
| 2026-05-08 04:22 | 31.15332 | -101.71301 | 32026 ft | 407 kts | 274° |
| 2026-05-08 04:22 | 31.16584 | -101.77750 | 32015 ft | 407 kts | 274° |
| 2026-05-08 04:23 | 31.17833 | -101.84194 | 32009 ft | 407 kts | 274° |
| 2026-05-08 04:23 | 31.19077 | -101.90635 | 32018 ft | 406 kts | 274° |
| 2026-05-08 04:24 | 31.20317 | -101.97073 | 32004 ft | 406 kts | 274° |
| 2026-05-08 04:24 | 31.21553 | -102.03508 | 32001 ft | 406 kts | 274° |
| 2026-05-08 04:25 | 31.22786 | -102.09945 | 32001 ft | 406 kts | 274° |
| 2026-05-08 04:25 | 31.24014 | -102.16377 | 31995 ft | 405 kts | 274° |
| 2026-05-08 04:26 | 31.25238 | -102.22804 | 31996 ft | 405 kts | 274° |
| 2026-05-08 04:26 | 31.26456 | -102.29222 | 31996 ft | 405 kts | 274° |
| 2026-05-08 04:27 | 31.27673 | -102.35650 | 31986 ft | 405 kts | 273° |
| 2026-05-08 04:27 | 31.28658 | -102.40867 | 31983 ft | 405 kts | 273° |
| 2026-05-08 04:28 | 31.29868 | -102.47291 | 31975 ft | 404 kts | 273° |
| 2026-05-08 04:28 | 31.31074 | -102.53715 | 31975 ft | 404 kts | 273° |
| 2026-05-08 04:29 | 31.32276 | -102.60131 | 31968 ft | 404 kts | 273° |
| 2026-05-08 04:29 | 31.33473 | -102.66545 | 31967 ft | 404 kts | 273° |
| 2026-05-08 04:30 | 31.34660 | -102.72923 | 31965 ft | 403 kts | 273° |
| 2026-05-08 04:30 | 31.35851 | -102.79339 | 31970 ft | 403 kts | 273° |
| 2026-05-08 04:31 | 31.37037 | -102.85746 | 31963 ft | 403 kts | 273° |
| 2026-05-08 04:31 | 31.38219 | -102.92153 | 31960 ft | 403 kts | 273° |
| 2026-05-08 04:32 | 31.39398 | -102.98560 | 31959 ft | 403 kts | 273° |
| 2026-05-08 04:32 | 31.40573 | -103.04968 | 31959 ft | 402 kts | 273° |
| 2026-05-08 04:33 | 31.41745 | -103.11372 | 31952 ft | 402 kts | 273° |
| 2026-05-08 04:33 | 31.42909 | -103.17756 | 31973 ft | 401 kts | 273° |
| 2026-05-08 04:34 | 31.44069 | -103.24138 | 32001 ft | 401 kts | 273° |
| 2026-05-08 04:34 | 31.45219 | -103.30481 | 32020 ft | 400 kts | 273° |
| 2026-05-08 04:35 | 31.46371 | -103.36858 | 32046 ft | 400 kts | 273° |
| 2026-05-08 04:35 | 31.47518 | -103.43224 | 32057 ft | 400 kts | 273° |
| 2026-05-08 04:36 | 31.48662 | -103.49590 | 32061 ft | 399 kts | 273° |
| 2026-05-08 04:36 | 31.49801 | -103.55950 | 32051 ft | 398 kts | 273° |
| 2026-05-08 04:37 | 31.50936 | -103.62302 | 32033 ft | 398 kts | 273° |
| 2026-05-08 04:37 | 31.52065 | -103.68647 | 32009 ft | 397 kts | 273° |
| 2026-05-08 04:38 | 31.53190 | -103.74981 | 31985 ft | 397 kts | 273° |
| 2026-05-08 04:38 | 31.54309 | -103.81309 | 31959 ft | 396 kts | 273° |
| 2026-05-08 04:39 | 31.55424 | -103.87628 | 31934 ft | 396 kts | 273° |
| 2026-05-08 04:39 | 31.56529 | -103.93909 | 31942 ft | 396 kts | 273° |
| 2026-05-08 04:40 | 31.57638 | -104.00236 | 31929 ft | 396 kts | 273° |
| 2026-05-08 04:40 | 31.58745 | -104.06573 | 31939 ft | 397 kts | 273° |
| 2026-05-08 04:41 | 31.59850 | -104.12911 | 31940 ft | 397 kts | 273° |
| 2026-05-08 04:41 | 31.60953 | -104.19258 | 31941 ft | 397 kts | 273° |
| 2026-05-08 04:42 | 31.62055 | -104.25621 | 31939 ft | 398 kts | 273° |
| 2026-05-08 04:42 | 31.63155 | -104.31990 | 31945 ft | 398 kts | 273° |
| 2026-05-08 04:43 | 31.64252 | -104.38361 | 31941 ft | 399 kts | 273° |
| 2026-05-08 04:43 | 31.65348 | -104.44748 | 31938 ft | 399 kts | 273° |
| 2026-05-08 04:44 | 31.66441 | -104.51138 | 31942 ft | 399 kts | 273° |
| 2026-05-08 04:44 | 31.67531 | -104.57526 | 31934 ft | 399 kts | 273° |
| 2026-05-08 04:45 | 31.68617 | -104.63914 | 31934 ft | 399 kts | 273° |
| 2026-05-08 04:45 | 31.69701 | -104.70306 | 31930 ft | 399 kts | 273° |
| 2026-05-08 04:46 | 31.70779 | -104.76694 | 31929 ft | 399 kts | 273° |
| 2026-05-08 04:46 | 31.71857 | -104.83097 | 31921 ft | 400 kts | 273° |
| 2026-05-08 04:47 | 31.72933 | -104.89511 | 31916 ft | 401 kts | 273° |
| 2026-05-08 04:47 | 31.74007 | -104.95933 | 31901 ft | 401 kts | 274° |
| 2026-05-08 04:48 | 31.75073 | -105.02321 | 31895 ft | 401 kts | 274° |
| 2026-05-08 04:48 | 31.76142 | -105.08750 | 31891 ft | 401 kts | 273° |
| 2026-05-08 04:49 | 31.77207 | -105.15178 | 31886 ft | 401 kts | 274° |
| 2026-05-08 04:49 | 31.78272 | -105.21626 | 31884 ft | 401 kts | 273° |
| 2026-05-08 04:50 | 31.79333 | -105.28075 | 31880 ft | 402 kts | 274° |
| 2026-05-08 04:50 | 31.80392 | -105.34530 | 31878 ft | 402 kts | 274° |
| 2026-05-08 04:51 | 31.81270 | -105.39902 | 31872 ft | 403 kts | 274° |
| 2026-05-08 04:51 | 31.82325 | -105.46367 | 31877 ft | 403 kts | 273° |
| 2026-05-08 04:52 | 31.83378 | -105.52854 | 31876 ft | 404 kts | 273° |
| 2026-05-08 04:52 | 31.84429 | -105.59343 | 31879 ft | 404 kts | 273° |
| 2026-05-08 04:53 | 31.85480 | -105.65851 | 31882 ft | 405 kts | 273° |
| 2026-05-08 04:53 | 31.86528 | -105.72366 | 31876 ft | 406 kts | 273° |
| 2026-05-08 04:54 | 31.87574 | -105.78893 | 31875 ft | 406 kts | 273° |
| 2026-05-08 04:54 | 31.88618 | -105.85421 | 31886 ft | 406 kts | 273° |
| 2026-05-08 04:55 | 31.89658 | -105.91957 | 31881 ft | 406 kts | 273° |
| 2026-05-08 04:55 | 31.90689 | -105.98455 | 31897 ft | 406 kts | 273° |
| 2026-05-08 04:56 | 31.91729 | -106.05037 | 31927 ft | 407 kts | 273° |
| 2026-05-08 04:56 | 31.92754 | -106.11543 | 31943 ft | 407 kts | 273° |
| 2026-05-08 04:57 | 31.93779 | -106.18081 | 31977 ft | 406 kts | 273° |
| 2026-05-08 04:57 | 31.94803 | -106.24625 | 31987 ft | 405 kts | 273° |
| 2026-05-08 04:58 | 31.95745 | -106.31138 | 32006 ft | 402 kts | 271° |
| 2026-05-08 04:58 | 31.96495 | -106.37643 | 32013 ft | 400 kts | 270° |
| 2026-05-08 04:59 | 31.97222 | -106.44137 | 32002 ft | 400 kts | 270° |
| 2026-05-08 04:59 | 31.97962 | -106.50617 | 31970 ft | 399 kts | 270° |
| 2026-05-08 05:00 | 31.98708 | -106.57091 | 32010 ft | 399 kts | 271° |
| 2026-05-08 05:00 | 31.99456 | -106.63581 | 32015 ft | 400 kts | 271° |
| 2026-05-08 05:01 | 32.00201 | -106.70078 | 32025 ft | 400 kts | 271° |
| 2026-05-08 05:01 | 32.00944 | -106.76579 | 32012 ft | 401 kts | 271° |
| 2026-05-08 05:02 | 32.01685 | -106.83091 | 31990 ft | 401 kts | 271° |
| 2026-05-08 05:02 | 32.02424 | -106.89614 | 31961 ft | 402 kts | 270° |
| 2026-05-08 05:03 | 32.03161 | -106.96151 | 31936 ft | 403 kts | 271° |
| 2026-05-08 05:03 | 32.03896 | -107.02697 | 31931 ft | 403 kts | 270° |
| 2026-05-08 05:04 | 32.04624 | -107.09213 | 31912 ft | 404 kts | 270° |
| 2026-05-08 05:04 | 32.05353 | -107.15771 | 31888 ft | 403 kts | 270° |
| 2026-05-08 05:05 | 32.06077 | -107.22310 | 31868 ft | 402 kts | 270° |
| 2026-05-08 05:05 | 32.06798 | -107.28857 | 31853 ft | 403 kts | 270° |
| 2026-05-08 05:06 | 32.07516 | -107.35401 | 31855 ft | 402 kts | 270° |
| 2026-05-08 05:06 | 32.08229 | -107.41945 | 31898 ft | 403 kts | 270° |
| 2026-05-08 05:07 | 32.08941 | -107.48507 | 31932 ft | 403 kts | 270° |
| 2026-05-08 05:07 | 32.09651 | -107.55081 | 31967 ft | 404 kts | 270° |
| 2026-05-08 05:08 | 32.10358 | -107.61668 | 31997 ft | 405 kts | 270° |
| 2026-05-08 05:08 | 32.11065 | -107.68278 | 32021 ft | 407 kts | 270° |
| 2026-05-08 05:09 | 32.11766 | -107.74871 | 32021 ft | 408 kts | 270° |
| 2026-05-08 05:09 | 32.12471 | -107.81528 | 32016 ft | 409 kts | 270° |
| 2026-05-08 05:10 | 32.13522 | -107.91522 | 31983 ft | 410 kts | 270° |
| 2026-05-08 05:11 | 32.14222 | -107.98212 | 31953 ft | 411 kts | 270° |
| 2026-05-08 05:11 | 32.14918 | -108.04906 | 31926 ft | 411 kts | 270° |
| 2026-05-08 05:12 | 32.15611 | -108.11609 | 31887 ft | 412 kts | 270° |
| 2026-05-08 05:12 | 32.16302 | -108.18328 | 31885 ft | 413 kts | 270° |
| 2026-05-08 05:13 | 32.16991 | -108.25060 | 31886 ft | 413 kts | 270° |
| 2026-05-08 05:13 | 32.17673 | -108.31763 | 31895 ft | 414 kts | 271° |
| 2026-05-08 05:14 | 32.18358 | -108.38531 | 31928 ft | 416 kts | 271° |
| 2026-05-08 05:14 | 32.19042 | -108.45324 | 31966 ft | 417 kts | 271° |
| 2026-05-08 05:15 | 32.19723 | -108.52128 | 31999 ft | 418 kts | 271° |
| 2026-05-08 05:15 | 32.20402 | -108.58947 | 32028 ft | 419 kts | 271° |
| 2026-05-08 05:16 | 32.21075 | -108.65743 | 32053 ft | 419 kts | 271° |
| 2026-05-08 05:16 | 32.21750 | -108.72595 | 32065 ft | 421 kts | 271° |
| 2026-05-08 05:17 | 32.22423 | -108.79474 | 32032 ft | 422 kts | 271° |
| 2026-05-08 05:17 | 32.23094 | -108.86375 | 32016 ft | 424 kts | 271° |
| 2026-05-08 05:18 | 32.23765 | -108.93307 | 31975 ft | 425 kts | 271° |
| 2026-05-08 05:18 | 32.24434 | -109.00260 | 31943 ft | 427 kts | 271° |
| 2026-05-08 05:19 | 32.25102 | -109.07238 | 31896 ft | 429 kts | 271° |
| 2026-05-08 05:19 | 32.25766 | -109.14249 | 31884 ft | 431 kts | 272° |
| 2026-05-08 05:20 | 32.26434 | -109.21319 | 31885 ft | 435 kts | 272° |
| 2026-05-08 05:20 | 32.27575 | -109.28385 | 31874 ft | 445 kts | 284° |
| 2026-05-08 05:21 | 32.29935 | -109.35207 | 31880 ft | 450 kts | 288° |
| 2026-05-08 05:21 | 32.32385 | -109.42033 | 31883 ft | 452 kts | 289° |
| 2026-05-08 05:22 | 32.34813 | -109.48897 | 31881 ft | 453 kts | 288° |
| 2026-05-08 05:22 | 32.37222 | -109.55791 | 31880 ft | 455 kts | 289° |
| 2026-05-08 05:23 | 32.39634 | -109.62730 | 31887 ft | 457 kts | 289° |
| 2026-05-08 05:23 | 32.42049 | -109.69697 | 31890 ft | 458 kts | 289° |
| 2026-05-08 05:24 | 32.44466 | -109.76682 | 31902 ft | 459 kts | 290° |
| 2026-05-08 05:24 | 32.46871 | -109.83643 | 31910 ft | 460 kts | 290° |
| 2026-05-08 05:25 | 32.49292 | -109.90669 | 31923 ft | 461 kts | 290° |
| 2026-05-08 05:25 | 32.51717 | -109.97717 | 31931 ft | 462 kts | 290° |
| 2026-05-08 05:26 | 32.54138 | -110.04773 | 31946 ft | 463 kts | 290° |
| 2026-05-08 05:26 | 32.56561 | -110.11848 | 31949 ft | 463 kts | 291° |
| 2026-05-08 05:27 | 32.58983 | -110.18936 | 31954 ft | 464 kts | 291° |
| 2026-05-08 05:27 | 32.61406 | -110.26043 | 31955 ft | 465 kts | 291° |
| 2026-05-08 05:28 | 32.63828 | -110.33162 | 31954 ft | 466 kts | 291° |
| 2026-05-08 05:28 | 32.66249 | -110.40295 | 31947 ft | 466 kts | 291° |
| 2026-05-08 05:29 | 32.68668 | -110.47436 | 31956 ft | 467 kts | 291° |
| 2026-05-08 05:29 | 32.71087 | -110.54594 | 31947 ft | 467 kts | 292° |
| 2026-05-08 05:30 | 32.73485 | -110.61707 | 31946 ft | 467 kts | 292° |
| 2026-05-08 05:30 | 32.75898 | -110.68877 | 31947 ft | 468 kts | 292° |
| 2026-05-08 05:31 | 32.78310 | -110.76062 | 31943 ft | 469 kts | 292° |
| 2026-05-08 05:31 | 32.80723 | -110.83266 | 31934 ft | 470 kts | 292° |
| 2026-05-08 05:32 | 32.83138 | -110.90494 | 31933 ft | 471 kts | 293° |
| 2026-05-08 05:32 | 32.85554 | -110.97739 | 31925 ft | 472 kts | 293° |
| 2026-05-08 05:33 | 32.87972 | -111.05008 | 31921 ft | 473 kts | 293° |
| 2026-05-08 05:33 | 32.90391 | -111.12294 | 31916 ft | 474 kts | 293° |
| 2026-05-08 05:34 | 32.92812 | -111.19607 | 31914 ft | 475 kts | 294° |
| 2026-05-08 05:34 | 32.95230 | -111.26926 | 31900 ft | 476 kts | 294° |
| 2026-05-08 05:35 | 32.97648 | -111.34261 | 31890 ft | 476 kts | 294° |
| 2026-05-08 05:35 | 33.00065 | -111.41611 | 31878 ft | 476 kts | 294° |
| 2026-05-08 05:36 | 33.02480 | -111.48970 | 31879 ft | 477 kts | 294° |
| 2026-05-08 05:36 | 33.04876 | -111.56291 | 31881 ft | 477 kts | 294° |
| 2026-05-08 05:37 | 33.07284 | -111.63666 | 31887 ft | 478 kts | 294° |
| 2026-05-08 05:37 | 33.09691 | -111.71053 | 31898 ft | 478 kts | 295° |
| 2026-05-08 05:38 | 33.12097 | -111.78455 | 31909 ft | 479 kts | 295° |
| 2026-05-08 05:38 | 33.13702 | -111.83410 | 31872 ft | 478 kts | 297° |
| 2026-05-08 05:39 | 33.15935 | -111.90309 | 31910 ft | 477 kts | 296° |
| 2026-05-08 05:39 | 33.18326 | -111.97705 | 31908 ft | 477 kts | 296° |
| 2026-05-08 05:40 | 33.20308 | -112.03852 | 31894 ft | 477 kts | 296° |
| 2026-05-08 05:40 | 33.22689 | -112.11256 | 31870 ft | 477 kts | 296° |
| 2026-05-08 05:41 | 33.25063 | -112.18658 | 31864 ft | 477 kts | 296° |
| 2026-05-08 05:41 | 33.27434 | -112.26064 | 31861 ft | 477 kts | 296° |
| 2026-05-08 05:42 | 33.29800 | -112.33474 | 31860 ft | 477 kts | 296° |
| 2026-05-08 05:42 | 33.32156 | -112.40876 | 31864 ft | 475 kts | 296° |
| 2026-05-08 05:43 | 33.34489 | -112.48220 | 31894 ft | 473 kts | 296° |
| 2026-05-08 05:43 | 33.36816 | -112.55560 | 31920 ft | 475 kts | 296° |
| 2026-05-08 05:44 | 33.39164 | -112.62979 | 31926 ft | 477 kts | 296° |
| 2026-05-08 05:44 | 33.41508 | -112.70417 | 31925 ft | 478 kts | 296° |
| 2026-05-08 05:45 | 33.43848 | -112.77863 | 31920 ft | 478 kts | 296° |
| 2026-05-08 05:45 | 33.46214 | -112.85288 | 31909 ft | 476 kts | 297° |
| 2026-05-08 05:46 | 33.48809 | -112.92510 | 31889 ft | 474 kts | 299° |
| 2026-05-08 05:46 | 33.51470 | -112.99727 | 31865 ft | 473 kts | 298° |
| 2026-05-08 05:47 | 33.54089 | -113.06953 | 31851 ft | 472 kts | 298° |
| 2026-05-08 05:47 | 33.56673 | -113.14182 | 31849 ft | 471 kts | 298° |
| 2026-05-08 05:48 | 33.59241 | -113.21399 | 31886 ft | 470 kts | 298° |
| 2026-05-08 05:48 | 33.61798 | -113.28596 | 31925 ft | 468 kts | 298° |
| 2026-05-08 05:49 | 33.64349 | -113.35791 | 31966 ft | 468 kts | 297° |
| 2026-05-08 05:49 | 33.66895 | -113.42983 | 31990 ft | 468 kts | 297° |
| 2026-05-08 05:50 | 33.69437 | -113.50182 | 32008 ft | 468 kts | 297° |
| 2026-05-08 05:50 | 33.71971 | -113.57377 | 32003 ft | 467 kts | 297° |
| 2026-05-08 05:51 | 33.74498 | -113.64569 | 31985 ft | 467 kts | 297° |
| 2026-05-08 05:51 | 33.77004 | -113.71721 | 31953 ft | 468 kts | 297° |
| 2026-05-08 05:52 | 33.79527 | -113.78930 | 31911 ft | 468 kts | 297° |
| 2026-05-08 05:52 | 33.82016 | -113.86159 | 31873 ft | 468 kts | 296° |
| 2026-05-08 05:53 | 33.84467 | -113.93416 | 31848 ft | 468 kts | 296° |
| 2026-05-08 05:53 | 33.86917 | -114.00681 | 31845 ft | 468 kts | 296° |
| 2026-05-08 05:54 | 33.89369 | -114.07947 | 31835 ft | 469 kts | 296° |
| 2026-05-08 05:54 | 33.91451 | -114.15400 | 31847 ft | 473 kts | 286° |
| 2026-05-08 05:55 | 33.92710 | -114.23186 | 31833 ft | 475 kts | 284° |
| 2026-05-08 05:55 | 33.93904 | -114.31008 | 31829 ft | 475 kts | 284° |
| 2026-05-08 05:56 | 33.95176 | -114.38823 | 31828 ft | 475 kts | 285° |
| 2026-05-08 05:56 | 33.96485 | -114.46620 | 31829 ft | 475 kts | 285° |
| 2026-05-08 05:57 | 33.97796 | -114.54415 | 31828 ft | 474 kts | 285° |
| 2026-05-08 05:57 | 33.99095 | -114.62197 | 31828 ft | 474 kts | 284° |
| 2026-05-08 05:58 | 34.00387 | -114.69978 | 31832 ft | 473 kts | 284° |
| 2026-05-08 05:58 | 34.01667 | -114.77730 | 31828 ft | 471 kts | 284° |
| 2026-05-08 05:59 | 34.02939 | -114.85458 | 31839 ft | 469 kts | 284° |
| 2026-05-08 05:59 | 34.04202 | -114.93170 | 31843 ft | 468 kts | 284° |
| 2026-05-08 06:00 | 34.05462 | -115.00879 | 31844 ft | 468 kts | 284° |
| 2026-05-08 06:00 | 34.06709 | -115.08526 | 31850 ft | 468 kts | 284° |
| 2026-05-08 06:01 | 34.07965 | -115.16231 | 31848 ft | 469 kts | 284° |
| 2026-05-08 06:01 | 34.09217 | -115.23962 | 31855 ft | 470 kts | 283° |
| 2026-05-08 06:02 | 34.10464 | -115.31703 | 31855 ft | 469 kts | 283° |
| 2026-05-08 06:02 | 34.11703 | -115.39433 | 31870 ft | 469 kts | 283° |
| 2026-05-08 06:03 | 34.12936 | -115.47153 | 31874 ft | 469 kts | 283° |
| 2026-05-08 06:03 | 34.14165 | -115.54886 | 31877 ft | 468 kts | 283° |
| 2026-05-08 06:04 | 34.15389 | -115.62615 | 31887 ft | 468 kts | 283° |
| 2026-05-08 06:04 | 34.16370 | -115.70386 | 31868 ft | 472 kts | 270° |
| 2026-05-08 06:05 | 34.15599 | -115.78299 | 31909 ft | 477 kts | 264° |
| 2026-05-08 06:05 | 34.15150 | -115.82272 | 31793 ft | 479 kts | 264° |
| 2026-05-08 06:05 | 34.14724 | -115.86257 | 31584 ft | 476 kts | 265° |
| 2026-05-08 06:05 | 34.14330 | -115.90171 | 31334 ft | 464 kts | 265° |
| 2026-05-08 06:06 | 34.13959 | -115.93995 | 31069 ft | 455 kts | 265° |
| 2026-05-08 06:06 | 34.13595 | -115.97765 | 30784 ft | 451 kts | 265° |
| 2026-05-08 06:06 | 34.13230 | -116.01517 | 30518 ft | 450 kts | 265° |
| 2026-05-08 06:06 | 34.12869 | -116.05219 | 30245 ft | 449 kts | 265° |
| 2026-05-08 06:07 | 34.12504 | -116.08952 | 29946 ft | 448 kts | 265° |
| 2026-05-08 06:07 | 34.12137 | -116.12680 | 29622 ft | 447 kts | 265° |
| 2026-05-08 06:07 | 34.11764 | -116.16449 | 29287 ft | 446 kts | 265° |
| 2026-05-08 06:07 | 34.11396 | -116.20151 | 28962 ft | 444 kts | 265° |
| 2026-05-08 06:08 | 34.11058 | -116.23549 | 28663 ft | 441 kts | 265° |
| 2026-05-08 06:08 | 34.10694 | -116.27201 | 28326 ft | 436 kts | 265° |
| 2026-05-08 06:08 | 34.10332 | -116.30813 | 28001 ft | 433 kts | 265° |
| 2026-05-08 06:08 | 34.09955 | -116.34414 | 27682 ft | 432 kts | 264° |
| 2026-05-08 06:09 | 34.09570 | -116.38008 | 27361 ft | 432 kts | 264° |
| 2026-05-08 06:09 | 34.09183 | -116.41592 | 27014 ft | 430 kts | 264° |
| 2026-05-08 06:09 | 34.08798 | -116.45156 | 26714 ft | 427 kts | 264° |
| 2026-05-08 06:09 | 34.08414 | -116.48702 | 26412 ft | 425 kts | 264° |
| 2026-05-08 06:10 | 34.08034 | -116.52226 | 26120 ft | 423 kts | 264° |
| 2026-05-08 06:10 | 34.07654 | -116.55741 | 25831 ft | 421 kts | 264° |
| 2026-05-08 06:10 | 34.07276 | -116.59238 | 25546 ft | 420 kts | 264° |
| 2026-05-08 06:10 | 34.06931 | -116.62728 | 25269 ft | 418 kts | 265° |
| 2026-05-08 06:11 | 34.06614 | -116.66204 | 24976 ft | 417 kts | 265° |
| 2026-05-08 06:11 | 34.06303 | -116.69684 | 24636 ft | 417 kts | 265° |
| 2026-05-08 06:11 | 34.05989 | -116.73142 | 24296 ft | 413 kts | 265° |
| 2026-05-08 06:11 | 34.05672 | -116.76573 | 23935 ft | 410 kts | 265° |
| 2026-05-08 06:12 | 34.05353 | -116.79981 | 23547 ft | 407 kts | 265° |
| 2026-05-08 06:12 | 34.05036 | -116.83349 | 23130 ft | 403 kts | 265° |
| 2026-05-08 06:12 | 34.04721 | -116.86685 | 22702 ft | 399 kts | 265° |
| 2026-05-08 06:12 | 34.04399 | -116.89992 | 22271 ft | 395 kts | 264° |
| 2026-05-08 06:13 | 34.03991 | -116.93257 | 21847 ft | 392 kts | 262° |
| 2026-05-08 06:13 | 34.03549 | -116.96490 | 21412 ft | 390 kts | 262° |
| 2026-05-08 06:13 | 34.03118 | -116.99678 | 20910 ft | 381 kts | 262° |
| 2026-05-08 06:13 | 34.02705 | -117.02805 | 20427 ft | 373 kts | 263° |
| 2026-05-08 06:14 | 34.02324 | -117.05867 | 19951 ft | 366 kts | 263° |
| 2026-05-08 06:14 | 34.01971 | -117.08881 | 19484 ft | 359 kts | 264° |
| 2026-05-08 06:14 | 34.01632 | -117.11798 | 19026 ft | 354 kts | 264° |
| 2026-05-08 06:14 | 34.01290 | -117.14721 | 18575 ft | 350 kts | 263° |
| 2026-05-08 06:15 | 34.00949 | -117.17614 | 18098 ft | 348 kts | 263° |
| 2026-05-08 06:15 | 34.00606 | -117.20490 | 17578 ft | 346 kts | 263° |
| 2026-05-08 06:15 | 34.00264 | -117.23359 | 17066 ft | 345 kts | 263° |
| 2026-05-08 06:15 | 33.99921 | -117.26216 | 16572 ft | 344 kts | 263° |
| 2026-05-08 06:16 | 33.99580 | -117.29057 | 16074 ft | 342 kts | 263° |
| 2026-05-08 06:16 | 33.99241 | -117.31884 | 15580 ft | 340 kts | 263° |
| 2026-05-08 06:16 | 33.98911 | -117.34689 | 15106 ft | 338 kts | 263° |
| 2026-05-08 06:16 | 33.98584 | -117.37482 | 14638 ft | 336 kts | 263° |
| 2026-05-08 06:17 | 33.97937 | -117.42991 | 13687 ft | 328 kts | 263° |
| 2026-05-08 06:17 | 33.97619 | -117.45687 | 13178 ft | 323 kts | 263° |
| 2026-05-08 06:17 | 33.97344 | -117.48359 | 12671 ft | 319 kts | 269° |
| 2026-05-08 06:18 | 33.97669 | -117.50969 | 12185 ft | 316 kts | 287° |
| 2026-05-08 06:18 | 33.98291 | -117.53527 | 11713 ft | 320 kts | 287° |
| 2026-05-08 06:18 | 33.98930 | -117.56106 | 11242 ft | 320 kts | 287° |
| 2026-05-08 06:18 | 33.99550 | -117.58646 | 10761 ft | 316 kts | 287° |
| 2026-05-08 06:19 | 34.00159 | -117.61184 | 10327 ft | 310 kts | 287° |
| 2026-05-08 06:19 | 34.00744 | -117.63655 | 9939 ft | 303 kts | 286° |
| 2026-05-08 06:19 | 34.01313 | -117.66067 | 9551 ft | 296 kts | 286° |
| 2026-05-08 06:19 | 34.01866 | -117.68417 | 9242 ft | 291 kts | 287° |
| 2026-05-08 06:20 | 34.02161 | -117.70826 | 8908 ft | 291 kts | 267° |
| 2026-05-08 06:20 | 34.01926 | -117.73240 | 8625 ft | 289 kts | 264° |
| 2026-05-08 06:20 | 34.01671 | -117.75638 | 8302 ft | 288 kts | 264° |
| 2026-05-08 06:20 | 34.01423 | -117.78021 | 7988 ft | 283 kts | 264° |
| 2026-05-08 06:21 | 34.01189 | -117.80340 | 7687 ft | 274 kts | 265° |
| 2026-05-08 06:21 | 34.00968 | -117.82592 | 7393 ft | 268 kts | 265° |
| 2026-05-08 06:21 | 34.00750 | -117.84817 | 7116 ft | 267 kts | 265° |
| 2026-05-08 06:21 | 34.00533 | -117.87039 | 6846 ft | 265 kts | 265° |
| 2026-05-08 06:22 | 34.00320 | -117.89208 | 6591 ft | 258 kts | 265° |
| 2026-05-08 06:22 | 34.00111 | -117.91335 | 6325 ft | 250 kts | 265° |
| 2026-05-08 06:22 | 33.99912 | -117.93354 | 6067 ft | 242 kts | 265° |
| 2026-05-08 06:22 | 33.99718 | -117.95336 | 5838 ft | 234 kts | 265° |
| 2026-05-08 06:23 | 33.99530 | -117.97248 | 5605 ft | 227 kts | 266° |
| 2026-05-08 06:23 | 33.99372 | -117.99125 | 5355 ft | 224 kts | 267° |
| 2026-05-08 06:23 | 33.99208 | -118.00994 | 5121 ft | 225 kts | 266° |
| 2026-05-08 06:23 | 33.99028 | -118.02870 | 4880 ft | 226 kts | 267° |
| 2026-05-08 06:24 | 33.98841 | -118.04750 | 4630 ft | 225 kts | 266° |
| 2026-05-08 06:24 | 33.98741 | -118.05738 | 4499 ft | 224 kts | 266° |
| 2026-05-08 06:24 | 33.98566 | -118.07458 | 4274 ft | 224 kts | 266° |
| 2026-05-08 06:24 | 33.98377 | -118.09295 | 4024 ft | 217 kts | 265° |
| 2026-05-08 06:25 | 33.98223 | -118.10796 | 3822 ft | 209 kts | 265° |
| 2026-05-08 06:25 | 33.98047 | -118.12500 | 3560 ft | 201 kts | 265° |
| 2026-05-08 06:25 | 33.97879 | -118.14146 | 3308 ft | 195 kts | 264° |
| 2026-05-08 06:25 | 33.97716 | -118.15746 | 3057 ft | 192 kts | 264° |
| 2026-05-08 06:26 | 33.97553 | -118.17338 | 2817 ft | 191 kts | 263° |
| 2026-05-08 06:26 | 33.97390 | -118.18928 | 2574 ft | 191 kts | 263° |
| 2026-05-08 06:26 | 33.97229 | -118.20496 | 2342 ft | 189 kts | 263° |
| 2026-05-08 06:26 | 33.97068 | -118.22074 | 2252 ft | 183 kts | 263° |
| 2026-05-08 06:27 | 33.96918 | -118.23536 | 2192 ft | 169 kts | 263° |
| 2026-05-08 06:27 | 33.96776 | -118.24918 | 2226 ft | 166 kts | 263° |
| 2026-05-08 06:27 | 33.96683 | -118.25826 | 2207 ft | 164 kts | 263° |
| 2026-05-08 06:27 | 33.96499 | -118.27641 | 2201 ft | 167 kts | 263° |
| 2026-05-08 06:28 | 33.96405 | -118.28596 | 2043 ft | 170 kts | 263° |
| 2026-05-08 06:28 | 33.96264 | -118.29987 | 1831 ft | 165 kts | 262° |
| 2026-05-08 06:28 | 33.96125 | -118.31330 | 1620 ft | 159 kts | 262° |
| 2026-05-08 06:28 | 33.95990 | -118.32645 | 1380 ft | 158 kts | 263° |
| 2026-05-08 06:29 | 33.95862 | -118.33948 | 1169 ft | 156 kts | 263° |
| 2026-05-08 06:29 | 33.95733 | -118.35251 | 925 ft | 157 kts | 262° |
| 2026-05-08 06:29 | 33.95600 | -118.36538 | 752 ft | 153 kts | 262° |
| 2026-05-08 06:29 | 33.95470 | -118.37797 | 549 ft | 152 kts | 261° |
| 2026-05-08 06:30 | 33.95334 | -118.39069 | 320 ft | 152 kts | 261° |
| 2026-05-08 06:30 | 33.95204 | -118.40300 | 138 ft | 142 kts | 261° |
| 2026-05-08 06:30 | 33.95092 | -118.41382 | 107 ft | 117 kts | 264° |
| 2026-05-08 06:30 | 33.95008 | -118.42174 | 107 ft | 73 kts | 262° |
| 2026-05-08 06:31 | 33.94957 | -118.42489 | 105 ft | 25 kts | 246° |
| 2026-05-08 06:31 | 33.94889 | -118.42629 | 102 ft | 14 kts | 232° |
| 2026-05-08 06:31 | 33.94855 | -118.42673 | 102 ft | 7 kts | 225° |
| 2026-05-08 06:31 | 33.94848 | -118.42681 | 103 ft | 0 kts | 224° |
| 2026-05-08 06:32 | 33.94847 | -118.42682 | 104 ft | 1 kts | 224° |
| 2026-05-08 06:32 | 33.94829 | -118.42703 | 103 ft | 6 kts | 222° |
| 2026-05-08 06:32 | 33.94796 | -118.42737 | 106 ft | 6 kts | 218° |
| 2026-05-08 06:32 | 33.94756 | -118.42761 | 107 ft | 7 kts | 197° |
| 2026-05-08 06:33 | 33.94696 | -118.42780 | 106 ft | 12 kts | 187° |
| 2026-05-08 06:33 | 33.94644 | -118.42778 | 100 ft | 0 kts | 175° |
| 2026-05-08 06:35 | 33.94639 | -118.42778 | 100 ft | 0 kts | 175° |
| 2026-05-08 06:35 | 33.94612 | -118.42774 | 98 ft | 7 kts | 174° |
| 2026-05-08 06:36 | 33.94566 | -118.42764 | 96 ft | 4 kts | 147° |
| 2026-05-08 06:36 | 33.94560 | -118.42729 | 100 ft | 6 kts | 89° |
| 2026-05-08 06:36 | 33.94564 | -118.42668 | 96 ft | 9 kts | 84° |
| 2026-05-08 06:36 | 33.94570 | -118.42594 | 95 ft | 9 kts | 85° |
| 2026-05-08 06:37 | 33.94578 | -118.42520 | 97 ft | 9 kts | 81° |
| 2026-05-08 06:37 | 33.94586 | -118.42448 | 95 ft | 9 kts | 85° |
| 2026-05-08 06:37 | 33.94591 | -118.42369 | 98 ft | 11 kts | 84° |
| 2026-05-08 06:37 | 33.94602 | -118.42274 | 96 ft | 13 kts | 83° |
| 2026-05-08 06:38 | 33.94613 | -118.42156 | 95 ft | 15 kts | 85° |
| 2026-05-08 06:38 | 33.94625 | -118.42022 | 95 ft | 16 kts | 83° |
| 2026-05-08 06:38 | 33.94633 | -118.41888 | 95 ft | 16 kts | 85° |
| 2026-05-08 06:38 | 33.94642 | -118.41759 | 95 ft | 15 kts | 84° |
| 2026-05-08 06:39 | 33.94655 | -118.41637 | 95 ft | 15 kts | 82° |
| 2026-05-08 06:39 | 33.94667 | -118.41519 | 96 ft | 14 kts | 84° |
| 2026-05-08 06:39 | 33.94671 | -118.41407 | 97 ft | 13 kts | 116° |
| 2026-05-08 06:39 | 33.94588 | -118.41369 | 96 ft | 13 kts | 173° |
| 2026-05-08 06:40 | 33.94499 | -118.41353 | 94 ft | 13 kts | 171° |
| 2026-05-08 06:40 | 33.94412 | -118.41340 | 95 ft | 12 kts | 174° |
| 2026-05-08 06:40 | 33.94327 | -118.41329 | 94 ft | 12 kts | 173° |
| 2026-05-08 06:40 | 33.94236 | -118.41317 | 94 ft | 14 kts | 175° |
| 2026-05-08 06:41 | 33.94146 | -118.41275 | 94 ft | 13 kts | 150° |
| 2026-05-08 06:41 | 33.94078 | -118.41279 | 94 ft | 12 kts | 186° |
| 2026-05-08 06:41 | 33.93988 | -118.41279 | 96 ft | 14 kts | 175° |
| 2026-05-08 06:41 | 33.93893 | -118.41265 | 96 ft | 14 kts | 174° |
| 2026-05-08 06:42 | 33.93838 | -118.41233 | 97 ft | 7 kts | 108° |
| 2026-05-08 06:42 | 33.93843 | -118.41172 | 96 ft | 9 kts | 81° |
| 2026-05-08 06:42 | 33.93852 | -118.41079 | 97 ft | 15 kts | 83° |
| 2026-05-08 06:42 | 33.93865 | -118.40946 | 98 ft | 17 kts | 83° |
| 2026-05-08 06:43 | 33.93882 | -118.40788 | 97 ft | 20 kts | 83° |
| 2026-05-08 06:43 | 33.93898 | -118.40620 | 98 ft | 15 kts | 83° |
| 2026-05-08 06:43 | 33.93912 | -118.40497 | 99 ft | 14 kts | 82° |
| 2026-05-08 06:43 | 33.93924 | -118.40379 | 97 ft | 14 kts | 83° |
| 2026-05-08 06:44 | 33.93935 | -118.40268 | 98 ft | 13 kts | 83° |
| 2026-05-08 06:44 | 33.93944 | -118.40159 | 98 ft | 13 kts | 86° |
| 2026-05-08 06:44 | 33.93974 | -118.40066 | 97 ft | 13 kts | 29° |
| 2026-05-08 06:44 | 33.94050 | -118.40069 | 96 ft | 9 kts | 354° |
| 2026-05-08 06:45 | 33.94108 | -118.40076 | 96 ft | 4 kts | 7° |
| 2026-05-08 06:45 | 33.94121 | -118.40053 | 95 ft | 3 kts | 85° |
| 2026-05-08 06:45 | 33.94118 | -118.40031 | 94 ft | 1 kts | 98° |
| 2026-05-08 06:45 | 33.94117 | -118.40027 | 94 ft | 0 kts | 97° |